sensor_id;sensor_type;location;lat;lon;timestamp;P1;durP1;ratioP1;P2;durP2;ratioP2
22985;SDS011;11659;51.092;7.080;2022-11-30T00:00:47;36.53;;;18.00;;
22985;SDS011;11659;51.092;7.080;2022-11-30T00:03:14;34.03;;;17.17;;
22985;SDS011;11659;51.092;7.080;2022-11-30T00:05:40;32.73;;;15.90;;
22985;SDS011;11659;51.092;7.080;2022-11-30T00:08:06;33.27;;;16.60;;
22985;SDS011;11659;51.092;7.080;2022-11-30T00:10:32;31.03;;;16.03;;
22985;SDS011;11659;51.092;7.080;2022-11-30T00:12:58;34.33;;;16.53;;
22985;SDS011;11659;51.092;7.080;2022-11-30T00:15:24;31.70;;;16.37;;
22985;SDS011;11659;51.092;7.080;2022-11-30T00:17:54;30.10;;;15.93;;
22985;SDS011;11659;51.092;7.080;2022-11-30T00:20:22;31.23;;;16.43;;
22985;SDS011;11659;51.092;7.080;2022-11-30T00:22:48;33.90;;;17.23;;
22985;SDS011;11659;51.092;7.080;2022-11-30T00:25:14;28.07;;;15.67;;
22985;SDS011;11659;51.092;7.080;2022-11-30T00:27:40;26.97;;;14.27;;
22985;SDS011;11659;51.092;7.080;2022-11-30T00:30:06;32.77;;;16.70;;
22985;SDS011;11659;51.092;7.080;2022-11-30T00:32:33;29.63;;;15.30;;
22985;SDS011;11659;51.092;7.080;2022-11-30T00:34:59;27.13;;;14.80;;
22985;SDS011;11659;51.092;7.080;2022-11-30T00:37:26;29.40;;;16.10;;
22985;SDS011;11659;51.092;7.080;2022-11-30T00:39:52;31.60;;;16.17;;
22985;SDS011;11659;51.092;7.080;2022-11-30T00:42:18;30.17;;;15.63;;
22985;SDS011;11659;51.092;7.080;2022-11-30T00:44:43;28.73;;;15.60;;
22985;SDS011;11659;51.092;7.080;2022-11-30T00:47:09;29.13;;;15.60;;
22985;SDS011;11659;51.092;7.080;2022-11-30T00:49:35;28.90;;;16.47;;
22985;SDS011;11659;51.092;7.080;2022-11-30T00:52:02;30.50;;;15.80;;
22985;SDS011;11659;51.092;7.080;2022-11-30T00:54:30;27.17;;;15.17;;
22985;SDS011;11659;51.092;7.080;2022-11-30T00:56:56;31.90;;;16.00;;
22985;SDS011;11659;51.092;7.080;2022-11-30T00:59:21;27.20;;;15.27;;
22985;SDS011;11659;51.092;7.080;2022-11-30T01:01:47;27.77;;;15.30;;
22985;SDS011;11659;51.092;7.080;2022-11-30T01:04:13;29.67;;;14.73;;
22985;SDS011;11659;51.092;7.080;2022-11-30T01:06:39;27.10;;;14.83;;
22985;SDS011;11659;51.092;7.080;2022-11-30T01:09:05;25.83;;;15.07;;
22985;SDS011;11659;51.092;7.080;2022-11-30T01:11:33;27.70;;;15.27;;
22985;SDS011;11659;51.092;7.080;2022-11-30T01:13:59;26.53;;;15.43;;
22985;SDS011;11659;51.092;7.080;2022-11-30T01:16:27;27.07;;;15.17;;
22985;SDS011;11659;51.092;7.080;2022-11-30T01:18:54;25.83;;;14.50;;
22985;SDS011;11659;51.092;7.080;2022-11-30T01:21:21;26.20;;;14.53;;
22985;SDS011;11659;51.092;7.080;2022-11-30T01:23:49;25.07;;;15.20;;
22985;SDS011;11659;51.092;7.080;2022-11-30T01:26:15;28.73;;;15.03;;
22985;SDS011;11659;51.092;7.080;2022-11-30T01:28:43;26.83;;;14.43;;
22985;SDS011;11659;51.092;7.080;2022-11-30T01:31:10;22.97;;;13.73;;
22985;SDS011;11659;51.092;7.080;2022-11-30T01:33:38;23.70;;;13.57;;
22985;SDS011;11659;51.092;7.080;2022-11-30T01:36:05;25.30;;;13.50;;
22985;SDS011;11659;51.092;7.080;2022-11-30T01:38:33;23.13;;;13.00;;
22985;SDS011;11659;51.092;7.080;2022-11-30T01:41:01;23.10;;;13.03;;
22985;SDS011;11659;51.092;7.080;2022-11-30T01:43:37;20.50;;;12.50;;
22985;SDS011;11659;51.092;7.080;2022-11-30T01:46:09;21.77;;;12.50;;
22985;SDS011;11659;51.092;7.080;2022-11-30T01:49:01;27.10;;;13.83;;
22985;SDS011;11659;51.092;7.080;2022-11-30T01:51:32;24.40;;;13.77;;
22985;SDS011;11659;51.092;7.080;2022-11-30T01:54:01;25.63;;;12.77;;
22985;SDS011;11659;51.092;7.080;2022-11-30T01:56:29;24.70;;;13.13;;
22985;SDS011;11659;51.092;7.080;2022-11-30T01:58:56;23.87;;;13.20;;
22985;SDS011;11659;51.092;7.080;2022-11-30T02:01:23;26.33;;;14.40;;
22985;SDS011;11659;51.092;7.080;2022-11-30T02:03:51;24.57;;;13.40;;
22985;SDS011;11659;51.092;7.080;2022-11-30T02:06:21;25.77;;;13.87;;
22985;SDS011;11659;51.092;7.080;2022-11-30T02:08:49;25.43;;;14.27;;
22985;SDS011;11659;51.092;7.080;2022-11-30T02:11:16;27.70;;;14.67;;
22985;SDS011;11659;51.092;7.080;2022-11-30T02:13:56;28.33;;;14.67;;
22985;SDS011;11659;51.092;7.080;2022-11-30T02:16:32;24.57;;;14.20;;
22985;SDS011;11659;51.092;7.080;2022-11-30T02:19:10;24.37;;;13.40;;
22985;SDS011;11659;51.092;7.080;2022-11-30T02:21:53;24.50;;;13.37;;
22985;SDS011;11659;51.092;7.080;2022-11-30T02:24:33;24.40;;;13.63;;
22985;SDS011;11659;51.092;7.080;2022-11-30T02:27:17;22.77;;;12.10;;
22985;SDS011;11659;51.092;7.080;2022-11-30T02:29:49;22.70;;;12.63;;
22985;SDS011;11659;51.092;7.080;2022-11-30T02:32:19;20.80;;;11.97;;
22985;SDS011;11659;51.092;7.080;2022-11-30T02:34:52;23.30;;;11.33;;
22985;SDS011;11659;51.092;7.080;2022-11-30T02:37:21;21.70;;;11.43;;
22985;SDS011;11659;51.092;7.080;2022-11-30T02:39:49;18.83;;;10.30;;
22985;SDS011;11659;51.092;7.080;2022-11-30T02:42:14;20.23;;;11.37;;
22985;SDS011;11659;51.092;7.080;2022-11-30T02:44:41;21.43;;;11.07;;
22985;SDS011;11659;51.092;7.080;2022-11-30T02:47:15;20.37;;;11.30;;
22985;SDS011;11659;51.092;7.080;2022-11-30T02:49:48;20.87;;;10.73;;
22985;SDS011;11659;51.092;7.080;2022-11-30T02:52:18;21.97;;;10.93;;
22985;SDS011;11659;51.092;7.080;2022-11-30T02:54:48;22.93;;;11.67;;
22985;SDS011;11659;51.092;7.080;2022-11-30T02:57:14;21.57;;;11.10;;
22985;SDS011;11659;51.092;7.080;2022-11-30T02:59:40;21.80;;;10.83;;
22985;SDS011;11659;51.092;7.080;2022-11-30T03:02:06;22.30;;;11.00;;
22985;SDS011;11659;51.092;7.080;2022-11-30T03:04:34;19.50;;;9.93;;
22985;SDS011;11659;51.092;7.080;2022-11-30T03:07:00;16.83;;;9.40;;
22985;SDS011;11659;51.092;7.080;2022-11-30T03:09:26;17.80;;;10.00;;
22985;SDS011;11659;51.092;7.080;2022-11-30T03:11:52;17.77;;;9.73;;
22985;SDS011;11659;51.092;7.080;2022-11-30T03:14:17;16.63;;;9.33;;
22985;SDS011;11659;51.092;7.080;2022-11-30T03:16:43;19.53;;;9.73;;
22985;SDS011;11659;51.092;7.080;2022-11-30T03:19:09;20.33;;;9.67;;
22985;SDS011;11659;51.092;7.080;2022-11-30T03:21:37;17.87;;;9.57;;
22985;SDS011;11659;51.092;7.080;2022-11-30T03:24:03;17.87;;;10.17;;
22985;SDS011;11659;51.092;7.080;2022-11-30T03:26:29;16.30;;;9.47;;
22985;SDS011;11659;51.092;7.080;2022-11-30T03:28:55;17.27;;;9.63;;
22985;SDS011;11659;51.092;7.080;2022-11-30T03:31:21;16.57;;;8.73;;
22985;SDS011;11659;51.092;7.080;2022-11-30T03:33:47;19.73;;;9.97;;
22985;SDS011;11659;51.092;7.080;2022-11-30T03:36:13;18.03;;;10.00;;
22985;SDS011;11659;51.092;7.080;2022-11-30T03:38:40;14.93;;;9.13;;
22985;SDS011;11659;51.092;7.080;2022-11-30T03:41:07;20.03;;;10.20;;
22985;SDS011;11659;51.092;7.080;2022-11-30T03:43:35;18.10;;;9.87;;
22985;SDS011;11659;51.092;7.080;2022-11-30T03:46:01;16.67;;;9.43;;
22985;SDS011;11659;51.092;7.080;2022-11-30T03:48:27;15.40;;;9.03;;
22985;SDS011;11659;51.092;7.080;2022-11-30T03:50:54;18.67;;;9.93;;
22985;SDS011;11659;51.092;7.080;2022-11-30T03:53:21;15.90;;;10.00;;
22985;SDS011;11659;51.092;7.080;2022-11-30T03:55:56;15.83;;;9.07;;
22985;SDS011;11659;51.092;7.080;2022-11-30T03:58:24;15.10;;;9.40;;
22985;SDS011;11659;51.092;7.080;2022-11-30T04:00:56;17.23;;;9.50;;
22985;SDS011;11659;51.092;7.080;2022-11-30T04:03:24;15.30;;;9.10;;
22985;SDS011;11659;51.092;7.080;2022-11-30T04:05:50;16.27;;;9.50;;
22985;SDS011;11659;51.092;7.080;2022-11-30T04:08:16;18.60;;;9.67;;
22985;SDS011;11659;51.092;7.080;2022-11-30T04:10:42;19.20;;;10.17;;
22985;SDS011;11659;51.092;7.080;2022-11-30T04:13:12;15.43;;;10.10;;
22985;SDS011;11659;51.092;7.080;2022-11-30T04:15:38;18.50;;;10.10;;
22985;SDS011;11659;51.092;7.080;2022-11-30T04:18:04;19.57;;;10.07;;
22985;SDS011;11659;51.092;7.080;2022-11-30T04:20:30;18.47;;;10.33;;
22985;SDS011;11659;51.092;7.080;2022-11-30T04:22:56;19.87;;;11.07;;
22985;SDS011;11659;51.092;7.080;2022-11-30T04:25:22;18.43;;;10.67;;
22985;SDS011;11659;51.092;7.080;2022-11-30T04:27:48;21.87;;;10.60;;
22985;SDS011;11659;51.092;7.080;2022-11-30T04:30:16;17.57;;;10.50;;
22985;SDS011;11659;51.092;7.080;2022-11-30T04:32:42;20.43;;;11.37;;
22985;SDS011;11659;51.092;7.080;2022-11-30T04:35:08;17.67;;;9.83;;
22985;SDS011;11659;51.092;7.080;2022-11-30T04:37:35;16.93;;;9.97;;
22985;SDS011;11659;51.092;7.080;2022-11-30T04:40:02;19.10;;;10.37;;
22985;SDS011;11659;51.092;7.080;2022-11-30T04:42:28;18.97;;;9.53;;
22985;SDS011;11659;51.092;7.080;2022-11-30T04:44:54;18.97;;;10.83;;
22985;SDS011;11659;51.092;7.080;2022-11-30T04:47:22;20.10;;;10.83;;
22985;SDS011;11659;51.092;7.080;2022-11-30T04:49:48;20.97;;;10.80;;
22985;SDS011;11659;51.092;7.080;2022-11-30T04:52:14;18.13;;;10.33;;
22985;SDS011;11659;51.092;7.080;2022-11-30T04:54:40;21.50;;;10.60;;
22985;SDS011;11659;51.092;7.080;2022-11-30T04:57:06;22.63;;;11.80;;
22985;SDS011;11659;51.092;7.080;2022-11-30T04:59:32;21.97;;;11.47;;
22985;SDS011;11659;51.092;7.080;2022-11-30T05:01:58;20.67;;;10.63;;
22985;SDS011;11659;51.092;7.080;2022-11-30T05:04:25;17.77;;;10.17;;
22985;SDS011;11659;51.092;7.080;2022-11-30T05:06:51;19.90;;;10.83;;
22985;SDS011;11659;51.092;7.080;2022-11-30T05:09:17;20.13;;;11.40;;
22985;SDS011;11659;51.092;7.080;2022-11-30T05:11:43;23.93;;;12.07;;
22985;SDS011;11659;51.092;7.080;2022-11-30T05:14:09;21.20;;;11.37;;
22985;SDS011;11659;51.092;7.080;2022-11-30T05:18:47;18.37;;;10.70;;
22985;SDS011;11659;51.092;7.080;2022-11-30T05:21:13;23.03;;;11.50;;
22985;SDS011;11659;51.092;7.080;2022-11-30T05:23:40;27.07;;;13.67;;
22985;SDS011;11659;51.092;7.080;2022-11-30T05:26:06;31.57;;;14.77;;
22985;SDS011;11659;51.092;7.080;2022-11-30T05:28:32;25.87;;;13.27;;
22985;SDS011;11659;51.092;7.080;2022-11-30T05:31:01;24.43;;;13.13;;
22985;SDS011;11659;51.092;7.080;2022-11-30T05:33:28;29.03;;;14.27;;
22985;SDS011;11659;51.092;7.080;2022-11-30T05:35:55;33.10;;;13.80;;
22985;SDS011;11659;51.092;7.080;2022-11-30T05:38:21;27.70;;;13.47;;
22985;SDS011;11659;51.092;7.080;2022-11-30T05:40:47;33.00;;;15.40;;
22985;SDS011;11659;51.092;7.080;2022-11-30T05:43:13;36.07;;;15.47;;
22985;SDS011;11659;51.092;7.080;2022-11-30T05:45:39;34.57;;;14.93;;
22985;SDS011;11659;51.092;7.080;2022-11-30T05:48:05;33.43;;;15.13;;
22985;SDS011;11659;51.092;7.080;2022-11-30T05:50:31;39.27;;;17.40;;
22985;SDS011;11659;51.092;7.080;2022-11-30T05:53:03;36.40;;;16.70;;
22985;SDS011;11659;51.092;7.080;2022-11-30T05:55:29;34.63;;;16.27;;
22985;SDS011;11659;51.092;7.080;2022-11-30T05:57:56;34.63;;;16.30;;
22985;SDS011;11659;51.092;7.080;2022-11-30T06:00:22;34.37;;;15.60;;
22985;SDS011;11659;51.092;7.080;2022-11-30T06:02:48;35.67;;;17.57;;
22985;SDS011;11659;51.092;7.080;2022-11-30T06:05:19;29.37;;;15.70;;
22985;SDS011;11659;51.092;7.080;2022-11-30T06:07:45;33.70;;;17.57;;
22985;SDS011;11659;51.092;7.080;2022-11-30T06:10:13;30.13;;;17.00;;
22985;SDS011;11659;51.092;7.080;2022-11-30T06:12:39;30.30;;;16.87;;
22985;SDS011;11659;51.092;7.080;2022-11-30T06:15:05;30.90;;;17.13;;
22985;SDS011;11659;51.092;7.080;2022-11-30T06:17:33;27.17;;;15.37;;
22985;SDS011;11659;51.092;7.080;2022-11-30T06:20:02;31.03;;;16.13;;
22985;SDS011;11659;51.092;7.080;2022-11-30T06:22:29;25.60;;;15.20;;
22985;SDS011;11659;51.092;7.080;2022-11-30T06:24:55;26.07;;;15.30;;
22985;SDS011;11659;51.092;7.080;2022-11-30T06:27:22;25.70;;;14.63;;
22985;SDS011;11659;51.092;7.080;2022-11-30T06:29:48;23.97;;;13.47;;
22985;SDS011;11659;51.092;7.080;2022-11-30T06:32:14;23.07;;;13.53;;
22985;SDS011;11659;51.092;7.080;2022-11-30T06:34:40;23.20;;;13.30;;
22985;SDS011;11659;51.092;7.080;2022-11-30T06:37:06;24.43;;;12.90;;
22985;SDS011;11659;51.092;7.080;2022-11-30T06:39:32;20.30;;;11.90;;
22985;SDS011;11659;51.092;7.080;2022-11-30T06:41:58;22.47;;;12.50;;
22985;SDS011;11659;51.092;7.080;2022-11-30T06:44:25;23.60;;;13.33;;
22985;SDS011;11659;51.092;7.080;2022-11-30T06:46:51;22.60;;;13.40;;
22985;SDS011;11659;51.092;7.080;2022-11-30T06:49:17;23.03;;;12.73;;
22985;SDS011;11659;51.092;7.080;2022-11-30T06:51:43;22.77;;;12.63;;
22985;SDS011;11659;51.092;7.080;2022-11-30T06:54:09;22.03;;;12.90;;
22985;SDS011;11659;51.092;7.080;2022-11-30T06:56:35;24.17;;;12.50;;
22985;SDS011;11659;51.092;7.080;2022-11-30T06:59:01;25.20;;;13.27;;
22985;SDS011;11659;51.092;7.080;2022-11-30T07:01:29;23.27;;;12.77;;
22985;SDS011;11659;51.092;7.080;2022-11-30T07:03:54;22.70;;;12.80;;
22985;SDS011;11659;51.092;7.080;2022-11-30T07:06:21;20.23;;;11.73;;
22985;SDS011;11659;51.092;7.080;2022-11-30T07:08:47;21.40;;;12.10;;
22985;SDS011;11659;51.092;7.080;2022-11-30T07:11:14;22.07;;;11.87;;
22985;SDS011;11659;51.092;7.080;2022-11-30T07:13:40;21.57;;;11.80;;
22985;SDS011;11659;51.092;7.080;2022-11-30T07:16:06;20.93;;;10.97;;
22985;SDS011;11659;51.092;7.080;2022-11-30T07:18:36;18.50;;;10.47;;
22985;SDS011;11659;51.092;7.080;2022-11-30T07:21:02;18.43;;;10.07;;
22985;SDS011;11659;51.092;7.080;2022-11-30T07:23:29;18.50;;;10.87;;
22985;SDS011;11659;51.092;7.080;2022-11-30T07:26:14;19.90;;;10.73;;
22985;SDS011;11659;51.092;7.080;2022-11-30T07:28:41;20.40;;;10.60;;
22985;SDS011;11659;51.092;7.080;2022-11-30T07:31:22;19.80;;;11.67;;
22985;SDS011;11659;51.092;7.080;2022-11-30T07:33:50;20.47;;;12.40;;
22985;SDS011;11659;51.092;7.080;2022-11-30T07:36:18;22.27;;;11.60;;
22985;SDS011;11659;51.092;7.080;2022-11-30T07:38:46;23.07;;;12.47;;
22985;SDS011;11659;51.092;7.080;2022-11-30T07:41:12;21.83;;;11.97;;
22985;SDS011;11659;51.092;7.080;2022-11-30T07:43:38;21.73;;;12.00;;
22985;SDS011;11659;51.092;7.080;2022-11-30T07:46:15;20.50;;;11.93;;
22985;SDS011;11659;51.092;7.080;2022-11-30T07:48:42;19.27;;;11.43;;
22985;SDS011;11659;51.092;7.080;2022-11-30T07:51:12;21.30;;;11.47;;
22985;SDS011;11659;51.092;7.080;2022-11-30T07:53:40;20.77;;;11.43;;
22985;SDS011;11659;51.092;7.080;2022-11-30T07:56:07;18.13;;;9.87;;
22985;SDS011;11659;51.092;7.080;2022-11-30T07:58:35;18.20;;;10.17;;
22985;SDS011;11659;51.092;7.080;2022-11-30T08:01:01;16.90;;;11.20;;
22985;SDS011;11659;51.092;7.080;2022-11-30T08:03:28;20.30;;;11.40;;
22985;SDS011;11659;51.092;7.080;2022-11-30T08:05:58;19.50;;;11.97;;
22985;SDS011;11659;51.092;7.080;2022-11-30T08:08:28;18.23;;;10.77;;
22985;SDS011;11659;51.092;7.080;2022-11-30T08:10:55;21.50;;;10.97;;
22985;SDS011;11659;51.092;7.080;2022-11-30T08:13:21;17.37;;;10.73;;
22985;SDS011;11659;51.092;7.080;2022-11-30T08:15:47;21.43;;;11.30;;
22985;SDS011;11659;51.092;7.080;2022-11-30T08:18:12;20.33;;;11.00;;
22985;SDS011;11659;51.092;7.080;2022-11-30T08:20:38;20.57;;;11.83;;
22985;SDS011;11659;51.092;7.080;2022-11-30T08:23:04;21.30;;;11.50;;
22985;SDS011;11659;51.092;7.080;2022-11-30T08:25:32;19.07;;;10.80;;
22985;SDS011;11659;51.092;7.080;2022-11-30T08:28:24;19.67;;;11.20;;
22985;SDS011;11659;51.092;7.080;2022-11-30T08:30:50;20.23;;;11.70;;
22985;SDS011;11659;51.092;7.080;2022-11-30T08:33:16;19.33;;;11.57;;
22985;SDS011;11659;51.092;7.080;2022-11-30T08:35:42;20.47;;;11.70;;
22985;SDS011;11659;51.092;7.080;2022-11-30T08:38:08;20.90;;;11.20;;
22985;SDS011;11659;51.092;7.080;2022-11-30T08:40:35;20.87;;;11.77;;
22985;SDS011;11659;51.092;7.080;2022-11-30T08:43:01;19.53;;;11.93;;
22985;SDS011;11659;51.092;7.080;2022-11-30T08:45:27;18.83;;;11.57;;
22985;SDS011;11659;51.092;7.080;2022-11-30T08:47:53;21.87;;;11.73;;
22985;SDS011;11659;51.092;7.080;2022-11-30T08:50:19;19.80;;;11.97;;
22985;SDS011;11659;51.092;7.080;2022-11-30T08:52:45;20.23;;;11.60;;
22985;SDS011;11659;51.092;7.080;2022-11-30T08:55:11;19.77;;;10.90;;
22985;SDS011;11659;51.092;7.080;2022-11-30T08:57:38;20.67;;;11.90;;
22985;SDS011;11659;51.092;7.080;2022-11-30T09:00:05;19.97;;;11.37;;
22985;SDS011;11659;51.092;7.080;2022-11-30T09:02:41;18.20;;;11.03;;
22985;SDS011;11659;51.092;7.080;2022-11-30T09:05:07;18.93;;;10.93;;
22985;SDS011;11659;51.092;7.080;2022-11-30T09:07:33;21.33;;;12.20;;
22985;SDS011;11659;51.092;7.080;2022-11-30T09:09:58;20.97;;;11.67;;
22985;SDS011;11659;51.092;7.080;2022-11-30T09:12:24;21.97;;;12.70;;
22985;SDS011;11659;51.092;7.080;2022-11-30T09:14:52;22.27;;;12.77;;
22985;SDS011;11659;51.092;7.080;2022-11-30T09:17:18;22.77;;;12.47;;
22985;SDS011;11659;51.092;7.080;2022-11-30T09:19:43;21.83;;;12.73;;
22985;SDS011;11659;51.092;7.080;2022-11-30T09:22:09;20.37;;;11.90;;
22985;SDS011;11659;51.092;7.080;2022-11-30T09:24:35;21.07;;;12.17;;
22985;SDS011;11659;51.092;7.080;2022-11-30T09:27:02;20.83;;;12.47;;
22985;SDS011;11659;51.092;7.080;2022-11-30T09:29:28;21.70;;;12.57;;
22985;SDS011;11659;51.092;7.080;2022-11-30T09:31:55;20.23;;;11.97;;
22985;SDS011;11659;51.092;7.080;2022-11-30T09:34:21;20.83;;;12.47;;
22985;SDS011;11659;51.092;7.080;2022-11-30T09:36:47;23.07;;;12.97;;
22985;SDS011;11659;51.092;7.080;2022-11-30T09:39:21;23.53;;;13.13;;
22985;SDS011;11659;51.092;7.080;2022-11-30T09:41:54;23.67;;;13.67;;
22985;SDS011;11659;51.092;7.080;2022-11-30T09:44:45;22.33;;;12.73;;
22985;SDS011;11659;51.092;7.080;2022-11-30T09:47:23;25.97;;;13.03;;
22985;SDS011;11659;51.092;7.080;2022-11-30T09:50:00;22.97;;;12.77;;
22985;SDS011;11659;51.092;7.080;2022-11-30T09:52:32;23.83;;;13.87;;
22985;SDS011;11659;51.092;7.080;2022-11-30T09:55:00;23.00;;;12.93;;
22985;SDS011;11659;51.092;7.080;2022-11-30T09:57:32;23.07;;;13.90;;
22985;SDS011;11659;51.092;7.080;2022-11-30T10:00:09;24.67;;;12.83;;
22985;SDS011;11659;51.092;7.080;2022-11-30T10:02:40;22.10;;;13.63;;
22985;SDS011;11659;51.092;7.080;2022-11-30T10:05:11;25.47;;;14.93;;
22985;SDS011;11659;51.092;7.080;2022-11-30T10:07:42;23.30;;;13.50;;
22985;SDS011;11659;51.092;7.080;2022-11-30T10:10:19;25.77;;;14.97;;
22985;SDS011;11659;51.092;7.080;2022-11-30T10:12:57;22.33;;;12.97;;
22985;SDS011;11659;51.092;7.080;2022-11-30T10:15:32;24.57;;;13.70;;
22985;SDS011;11659;51.092;7.080;2022-11-30T10:18:13;23.77;;;13.63;;
22985;SDS011;11659;51.092;7.080;2022-11-30T10:20:49;27.60;;;14.73;;
22985;SDS011;11659;51.092;7.080;2022-11-30T10:23:27;24.93;;;14.07;;
22985;SDS011;11659;51.092;7.080;2022-11-30T10:26:07;24.57;;;14.43;;
22985;SDS011;11659;51.092;7.080;2022-11-30T10:28:38;26.33;;;15.60;;
22985;SDS011;11659;51.092;7.080;2022-11-30T10:31:13;28.70;;;15.73;;
22985;SDS011;11659;51.092;7.080;2022-11-30T10:33:42;27.63;;;15.70;;
22985;SDS011;11659;51.092;7.080;2022-11-30T10:36:12;28.93;;;17.13;;
22985;SDS011;11659;51.092;7.080;2022-11-30T10:38:43;26.93;;;15.83;;
22985;SDS011;11659;51.092;7.080;2022-11-30T10:41:14;30.03;;;16.47;;
22985;SDS011;11659;51.092;7.080;2022-11-30T10:43:44;25.60;;;16.13;;
22985;SDS011;11659;51.092;7.080;2022-11-30T10:46:17;29.63;;;16.37;;
22985;SDS011;11659;51.092;7.080;2022-11-30T10:48:48;29.37;;;16.70;;
22985;SDS011;11659;51.092;7.080;2022-11-30T10:51:19;31.33;;;16.90;;
22985;SDS011;11659;51.092;7.080;2022-11-30T10:53:46;29.67;;;16.63;;
22985;SDS011;11659;51.092;7.080;2022-11-30T10:56:12;32.67;;;18.23;;
22985;SDS011;11659;51.092;7.080;2022-11-30T10:58:39;31.40;;;17.13;;
22985;SDS011;11659;51.092;7.080;2022-11-30T11:01:29;30.13;;;17.43;;
22985;SDS011;11659;51.092;7.080;2022-11-30T11:04:07;30.10;;;17.90;;
22985;SDS011;11659;51.092;7.080;2022-11-30T11:06:38;29.63;;;17.27;;
22985;SDS011;11659;51.092;7.080;2022-11-30T11:09:21;30.80;;;17.07;;
22985;SDS011;11659;51.092;7.080;2022-11-30T11:11:59;31.27;;;17.90;;
22985;SDS011;11659;51.092;7.080;2022-11-30T11:14:26;29.63;;;16.57;;
22985;SDS011;11659;51.092;7.080;2022-11-30T11:16:54;31.60;;;16.93;;
22985;SDS011;11659;51.092;7.080;2022-11-30T11:19:24;28.53;;;16.33;;
22985;SDS011;11659;51.092;7.080;2022-11-30T11:22:00;30.60;;;16.53;;
22985;SDS011;11659;51.092;7.080;2022-11-30T11:24:27;29.07;;;16.50;;
22985;SDS011;11659;51.092;7.080;2022-11-30T11:26:54;29.57;;;15.13;;
22985;SDS011;11659;51.092;7.080;2022-11-30T11:29:22;32.27;;;16.70;;
22985;SDS011;11659;51.092;7.080;2022-11-30T11:32:04;31.17;;;17.73;;
22985;SDS011;11659;51.092;7.080;2022-11-30T11:34:43;33.10;;;16.37;;
22985;SDS011;11659;51.092;7.080;2022-11-30T11:37:13;34.37;;;17.63;;
22985;SDS011;11659;51.092;7.080;2022-11-30T11:39:53;34.03;;;18.37;;
22985;SDS011;11659;51.092;7.080;2022-11-30T11:42:24;34.07;;;18.43;;
22985;SDS011;11659;51.092;7.080;2022-11-30T11:44:52;31.73;;;18.30;;
22985;SDS011;11659;51.092;7.080;2022-11-30T11:47:22;31.97;;;18.83;;
22985;SDS011;11659;51.092;7.080;2022-11-30T11:50:23;34.53;;;18.00;;
22985;SDS011;11659;51.092;7.080;2022-11-30T11:53:05;31.70;;;18.20;;
22985;SDS011;11659;51.092;7.080;2022-11-30T11:55:48;31.33;;;17.47;;
22985;SDS011;11659;51.092;7.080;2022-11-30T11:58:30;31.50;;;17.57;;
22985;SDS011;11659;51.092;7.080;2022-11-30T12:01:02;28.27;;;16.80;;
22985;SDS011;11659;51.092;7.080;2022-11-30T12:03:33;33.90;;;19.53;;
22985;SDS011;11659;51.092;7.080;2022-11-30T12:06:07;35.07;;;18.67;;
22985;SDS011;11659;51.092;7.080;2022-11-30T12:08:40;32.90;;;18.47;;
22985;SDS011;11659;51.092;7.080;2022-11-30T12:11:11;34.53;;;19.47;;
22985;SDS011;11659;51.092;7.080;2022-11-30T12:13:41;31.67;;;18.47;;
22985;SDS011;11659;51.092;7.080;2022-11-30T12:16:14;31.10;;;17.50;;
22985;SDS011;11659;51.092;7.080;2022-11-30T12:18:58;31.23;;;17.57;;
22985;SDS011;11659;51.092;7.080;2022-11-30T12:21:39;33.80;;;18.90;;
22985;SDS011;11659;51.092;7.080;2022-11-30T12:24:20;33.80;;;19.67;;
22985;SDS011;11659;51.092;7.080;2022-11-30T12:27:01;32.03;;;18.10;;
22985;SDS011;11659;51.092;7.080;2022-11-30T12:29:39;30.17;;;18.20;;
22985;SDS011;11659;51.092;7.080;2022-11-30T12:32:15;35.67;;;19.03;;
22985;SDS011;11659;51.092;7.080;2022-11-30T12:34:53;32.83;;;18.67;;
22985;SDS011;11659;51.092;7.080;2022-11-30T12:37:32;32.17;;;17.90;;
22985;SDS011;11659;51.092;7.080;2022-11-30T12:40:12;30.33;;;17.67;;
22985;SDS011;11659;51.092;7.080;2022-11-30T12:42:45;31.13;;;17.60;;
22985;SDS011;11659;51.092;7.080;2022-11-30T12:45:22;32.87;;;18.27;;
22985;SDS011;11659;51.092;7.080;2022-11-30T12:47:54;31.93;;;17.27;;
22985;SDS011;11659;51.092;7.080;2022-11-30T12:50:32;32.33;;;17.83;;
22985;SDS011;11659;51.092;7.080;2022-11-30T12:53:11;32.10;;;17.33;;
22985;SDS011;11659;51.092;7.080;2022-11-30T12:55:46;33.53;;;18.40;;
22985;SDS011;11659;51.092;7.080;2022-11-30T12:58:19;30.27;;;17.57;;
22985;SDS011;11659;51.092;7.080;2022-11-30T13:00:58;27.70;;;16.73;;
22985;SDS011;11659;51.092;7.080;2022-11-30T13:03:36;29.47;;;16.97;;
22985;SDS011;11659;51.092;7.080;2022-11-30T13:06:09;30.63;;;17.60;;
22985;SDS011;11659;51.092;7.080;2022-11-30T13:08:43;33.40;;;17.90;;
22985;SDS011;11659;51.092;7.080;2022-11-30T13:11:15;35.70;;;18.33;;
22985;SDS011;11659;51.092;7.080;2022-11-30T13:13:46;32.40;;;19.00;;
22985;SDS011;11659;51.092;7.080;2022-11-30T13:16:15;30.73;;;18.20;;
22985;SDS011;11659;51.092;7.080;2022-11-30T13:18:42;30.60;;;18.33;;
22985;SDS011;11659;51.092;7.080;2022-11-30T13:21:15;34.37;;;18.77;;
22985;SDS011;11659;51.092;7.080;2022-11-30T13:23:51;35.37;;;18.13;;
22985;SDS011;11659;51.092;7.080;2022-11-30T13:26:22;30.77;;;17.13;;
22985;SDS011;11659;51.092;7.080;2022-11-30T13:29:00;31.20;;;17.27;;
22985;SDS011;11659;51.092;7.080;2022-11-30T13:31:40;33.90;;;17.90;;
22985;SDS011;11659;51.092;7.080;2022-11-30T13:34:23;33.20;;;18.57;;
22985;SDS011;11659;51.092;7.080;2022-11-30T13:36:50;33.43;;;18.33;;
22985;SDS011;11659;51.092;7.080;2022-11-30T13:39:25;30.97;;;18.20;;
22985;SDS011;11659;51.092;7.080;2022-11-30T13:45:16;30.60;;;17.53;;
22985;SDS011;11659;51.092;7.080;2022-11-30T13:47:51;32.73;;;18.23;;
22985;SDS011;11659;51.092;7.080;2022-11-30T13:50:20;34.17;;;18.27;;
22985;SDS011;11659;51.092;7.080;2022-11-30T13:55:50;35.50;;;18.63;;
22985;SDS011;11659;51.092;7.080;2022-11-30T13:58:27;36.33;;;19.43;;
22985;SDS011;11659;51.092;7.080;2022-11-30T14:06:53;31.43;;;18.40;;
22985;SDS011;11659;51.092;7.080;2022-11-30T14:12:42;31.03;;;17.07;;
22985;SDS011;11659;51.092;7.080;2022-11-30T14:18:29;27.77;;;16.17;;
22985;SDS011;11659;51.092;7.080;2022-11-30T14:21:11;29.03;;;16.70;;
22985;SDS011;11659;51.092;7.080;2022-11-30T14:23:56;29.73;;;16.87;;
22985;SDS011;11659;51.092;7.080;2022-11-30T14:26:29;31.47;;;17.77;;
22985;SDS011;11659;51.092;7.080;2022-11-30T14:29:11;31.13;;;18.07;;
22985;SDS011;11659;51.092;7.080;2022-11-30T14:31:50;29.37;;;16.93;;
22985;SDS011;11659;51.092;7.080;2022-11-30T14:34:22;29.00;;;17.30;;
22985;SDS011;11659;51.092;7.080;2022-11-30T14:36:52;31.83;;;18.37;;
22985;SDS011;11659;51.092;7.080;2022-11-30T14:39:25;32.37;;;17.47;;
22985;SDS011;11659;51.092;7.080;2022-11-30T14:41:55;31.67;;;17.57;;
22985;SDS011;11659;51.092;7.080;2022-11-30T14:44:23;33.53;;;17.63;;
22985;SDS011;11659;51.092;7.080;2022-11-30T14:46:49;27.43;;;16.37;;
22985;SDS011;11659;51.092;7.080;2022-11-30T14:49:15;28.70;;;16.60;;
22985;SDS011;11659;51.092;7.080;2022-11-30T14:51:43;30.10;;;17.00;;
22985;SDS011;11659;51.092;7.080;2022-11-30T14:54:39;30.93;;;18.73;;
22985;SDS011;11659;51.092;7.080;2022-11-30T14:57:15;35.40;;;18.50;;
22985;SDS011;11659;51.092;7.080;2022-11-30T14:59:49;31.83;;;18.53;;